createdAt,value
2022-08-10T00:00:55.784Z,100.00
2022-08-10T00:03:22.249Z,100.00
2022-08-10T00:05:52.613Z,100.00
2022-08-10T00:08:23.772Z,100.00
2022-08-10T00:10:54.206Z,100.00
2022-08-10T00:13:20.832Z,100.00
2022-08-10T00:15:53.905Z,100.00
2022-08-10T00:18:31.542Z,100.00
2022-08-10T00:21:04.523Z,100.00
2022-08-10T00:23:30.958Z,100.00
2022-08-10T00:25:57.466Z,100.00
2022-08-10T00:28:23.912Z,100.00
2022-08-10T00:30:50.395Z,100.00
2022-08-10T00:33:16.956Z,100.00
2022-08-10T00:35:43.437Z,100.00
2022-08-10T00:38:10.198Z,100.00
2022-08-10T00:40:37.668Z,100.00
2022-08-10T00:43:07.864Z,100.00
2022-08-10T00:45:35.175Z,100.00
2022-08-10T00:48:02.045Z,100.00
2022-08-10T00:50:28.735Z,100.00
2022-08-10T00:52:55.198Z,100.00
2022-08-10T00:55:21.889Z,100.00
2022-08-10T00:57:55.314Z,100.00
2022-08-10T01:00:23.123Z,100.00
2022-08-10T01:02:49.745Z,100.00
2022-08-10T01:05:16.297Z,100.00
2022-08-10T01:08:08.323Z,100.00
2022-08-10T01:10:45.030Z,100.00
2022-08-10T01:13:20.615Z,100.00
2022-08-10T01:16:04.382Z,100.00
2022-08-10T01:18:43.101Z,100.00
2022-08-10T01:21:38.562Z,100.00
2022-08-10T01:24:42.719Z,100.00
2022-08-10T01:27:34.197Z,100.00
2022-08-10T01:30:04.477Z,100.00
2022-08-10T01:33:00.124Z,100.00
2022-08-10T01:35:54.627Z,100.00
2022-08-10T01:38:27.685Z,100.00
2022-08-10T01:40:57.040Z,100.00
2022-08-10T01:43:23.627Z,100.00
2022-08-10T01:45:52.701Z,100.00
2022-08-10T01:48:31.502Z,100.00
2022-08-10T01:51:18.033Z,100.00
2022-08-10T01:53:53.517Z,100.00
2022-08-10T01:56:21.224Z,100.00
2022-08-10T01:58:51.316Z,100.00
2022-08-10T02:01:19.762Z,100.00
2022-08-10T02:04:05.019Z,100.00
2022-08-10T02:06:33.937Z,100.00
2022-08-10T02:09:06.488Z,100.00
2022-08-10T02:11:57.538Z,100.00
2022-08-10T02:14:19.709Z,100.00
2022-08-10T02:16:47.761Z,100.00
2022-08-10T02:19:16.101Z,100.00
2022-08-10T02:22:46.092Z,100.00
2022-08-10T02:24:30.747Z,100.00
2022-08-10T02:26:59.928Z,100.00
2022-08-10T02:29:26.461Z,100.00
2022-08-10T02:31:52.901Z,100.00
2022-08-10T02:34:20.775Z,100.00
2022-08-10T02:36:49.441Z,100.00
2022-08-10T02:39:16.482Z,100.00
2022-08-10T02:45:02.316Z,100.00
2022-08-10T02:45:24.220Z,100.00
2022-08-10T02:47:51.171Z,100.00
2022-08-10T02:50:27.649Z,100.00
2022-08-10T02:53:01.879Z,100.00
2022-08-10T02:55:32.790Z,100.00
2022-08-10T02:58:17.358Z,100.00
2022-08-10T03:00:48.356Z,100.00
2022-08-10T03:03:21.437Z,100.00
2022-08-10T03:05:49.889Z,100.00
2022-08-10T03:08:18.771Z,100.00
2022-08-10T03:10:45.194Z,100.00
2022-08-10T03:13:11.708Z,100.00
2022-08-10T03:15:38.354Z,100.00
2022-08-10T03:18:05.545Z,100.00
2022-08-10T03:20:39.768Z,100.00
2022-08-10T03:23:15.371Z,100.00
2022-08-10T03:25:53.089Z,100.00
2022-08-10T03:28:28.245Z,100.00
2022-08-10T03:30:54.969Z,100.00
2022-08-10T03:33:22.233Z,100.00
2022-08-10T03:36:42.531Z,100.00
2022-08-10T03:38:36.020Z,100.00
2022-08-10T03:41:05.306Z,100.00
2022-08-10T03:43:31.834Z,100.00
2022-08-10T03:45:59.713Z,100.00
2022-08-10T03:48:45.078Z,100.00
2022-08-10T03:51:13.648Z,100.00
2022-08-10T03:54:03.752Z,100.00
2022-08-10T03:56:31.565Z,100.00
2022-08-10T03:58:59.179Z,100.00
2022-08-10T04:02:46.141Z,100.00
2022-08-10T04:04:14.700Z,100.00
2022-08-10T04:06:44.607Z,100.00
2022-08-10T04:09:11.055Z,100.00
2022-08-10T04:11:37.784Z,100.00
2022-08-10T04:14:07.275Z,100.00
2022-08-10T04:16:53.844Z,100.00
2022-08-10T04:19:20.357Z,100.00
2022-08-10T04:21:50.089Z,100.00
2022-08-10T04:24:27.137Z,100.00
2022-08-10T04:26:59.677Z,100.00
2022-08-10T04:29:26.177Z,100.00
2022-08-10T04:31:52.764Z,100.00
2022-08-10T04:34:19.398Z,100.00
2022-08-10T04:36:45.845Z,100.00
2022-08-10T04:39:13.578Z,100.00
2022-08-10T04:41:46.072Z,100.00
2022-08-10T04:44:13.861Z,100.00
2022-08-10T04:46:56.335Z,100.00
2022-08-10T04:49:54.168Z,100.00
2022-08-10T04:52:12.951Z,100.00
2022-08-10T04:54:39.440Z,100.00
2022-08-10T04:57:06.145Z,100.00
2022-08-10T04:59:32.620Z,100.00
2022-08-10T05:02:30.402Z,100.00
2022-08-10T05:04:45.486Z,100.00
2022-08-10T05:07:16.973Z,100.00
2022-08-10T05:10:02.866Z,100.00
2022-08-10T05:12:34.631Z,100.00
2022-08-10T05:15:05.320Z,100.00
2022-08-10T05:17:31.735Z,100.00
2022-08-10T05:20:03.646Z,100.00
2022-08-10T05:22:34.478Z,100.00
2022-08-10T05:25:01.133Z,100.00
2022-08-10T05:27:27.657Z,100.00
2022-08-10T05:30:01.791Z,100.00
2022-08-10T05:32:30.757Z,100.00
2022-08-10T05:34:57.618Z,100.00
2022-08-10T05:38:10.859Z,100.00
2022-08-10T05:40:10.833Z,100.00
2022-08-10T05:42:37.482Z,100.00
2022-08-10T05:45:04.410Z,100.00
2022-08-10T05:48:55.671Z,100.00
2022-08-10T05:50:17.696Z,100.00
2022-08-10T05:52:44.223Z,100.00
2022-08-10T05:55:11.516Z,100.00
2022-08-10T05:57:38.036Z,100.00
2022-08-10T06:00:34.515Z,100.00
2022-08-10T06:02:59.191Z,100.00
2022-08-10T06:05:26.560Z,100.00
2022-08-10T06:08:09.438Z,100.00
2022-08-10T06:12:21.663Z,100.00
2022-08-10T06:13:59.833Z,100.00
2022-08-10T06:16:29.785Z,100.00
2022-08-10T06:18:56.380Z,100.00
2022-08-10T06:21:22.934Z,100.00
2022-08-10T06:23:49.605Z,100.00
2022-08-10T06:26:20.976Z,100.00
2022-08-10T06:29:02.777Z,100.00
2022-08-10T06:31:47.906Z,100.00
2022-08-10T06:34:20.489Z,100.00
2022-08-10T06:36:47.126Z,100.00
2022-08-10T06:39:32.546Z,100.00
2022-08-10T06:42:14.809Z,100.00
2022-08-10T06:45:06.677Z,100.00
2022-08-10T06:47:43.924Z,100.00
2022-08-10T06:50:44.515Z,100.00
2022-08-10T06:53:12.843Z,100.00
2022-08-10T06:55:55.117Z,100.00
2022-08-10T06:58:26.979Z,100.00
2022-08-10T07:00:53.869Z,100.00
2022-08-10T07:03:20.446Z,100.00
2022-08-10T07:05:51.171Z,100.00
2022-08-10T07:08:18.451Z,100.00
2022-08-10T07:10:46.641Z,100.00
2022-08-10T07:13:15.557Z,100.00
2022-08-10T07:16:02.023Z,100.00
2022-08-10T07:18:28.469Z,100.00
2022-08-10T07:20:56.294Z,100.00
2022-08-10T07:23:57.604Z,100.00
2022-08-10T07:26:09.924Z,100.00
2022-08-10T07:28:36.477Z,100.00
2022-08-10T07:31:02.980Z,100.00
2022-08-10T07:33:30.245Z,100.00
2022-08-10T07:35:56.745Z,100.00
2022-08-10T07:38:24.542Z,100.00
2022-08-10T07:40:51.796Z,100.00
2022-08-10T07:43:19.060Z,100.00
2022-08-10T07:45:45.535Z,100.00
2022-08-10T07:48:15.205Z,100.00
2022-08-10T07:50:41.818Z,100.00
2022-08-10T07:53:10.390Z,100.00
2022-08-10T07:56:04.252Z,100.00
2022-08-10T07:58:25.786Z,100.00
2022-08-10T08:00:52.480Z,100.00
2022-08-10T08:03:21.142Z,100.00
2022-08-10T08:05:58.267Z,100.00
2022-08-10T08:08:29.271Z,100.00
2022-08-10T08:10:58.033Z,100.00
2022-08-10T08:13:24.534Z,100.00
2022-08-10T08:16:17.256Z,100.00
2022-08-10T08:18:37.749Z,100.00
2022-08-10T08:21:07.642Z,100.00
2022-08-10T08:24:05.580Z,100.00
2022-08-10T08:26:37.659Z,100.00
2022-08-10T08:29:04.954Z,100.00
2022-08-10T08:31:31.514Z,100.00
2022-08-10T08:33:57.962Z,100.00
2022-08-10T08:36:24.421Z,100.00
2022-08-10T08:38:50.890Z,100.00
2022-08-10T08:41:47.869Z,100.00
2022-08-10T08:44:51.806Z,100.00
2022-08-10T08:48:05.253Z,100.00
2022-08-10T08:50:40.017Z,100.00
2022-08-10T08:54:01.583Z,100.00
2022-08-10T08:56:21.361Z,100.00
2022-08-10T08:58:50.696Z,100.00
2022-08-10T09:01:42.124Z,100.00
2022-08-10T09:04:30.829Z,100.00
2022-08-10T09:07:07.183Z,100.00
2022-08-10T09:10:01.419Z,100.00
2022-08-10T09:12:51.610Z,100.00
2022-08-10T09:15:40.931Z,100.00
2022-08-10T09:18:18.487Z,100.00
2022-08-10T09:20:51.479Z,100.00
2022-08-10T09:24:05.267Z,100.00
2022-08-10T09:26:58.956Z,100.00
2022-08-10T09:29:26.822Z,100.00
2022-08-10T09:36:17.572Z,100.00
2022-08-10T09:36:23.156Z,100.00
2022-08-10T09:38:34.074Z,100.00
2022-08-10T09:41:13.003Z,100.00
2022-08-10T09:43:55.033Z,100.00
2022-08-10T09:46:34.343Z,99.90
2022-08-10T09:49:22.378Z,96.83
2022-08-10T09:52:01.884Z,100.00
2022-08-10T09:54:56.109Z,99.07
2022-08-10T09:57:44.401Z,99.44
2022-08-10T10:00:15.474Z,98.98
2022-08-10T10:02:52.608Z,98.84
2022-08-10T10:05:50.374Z,97.64
2022-08-10T10:08:30.302Z,97.73
2022-08-10T10:11:19.656Z,96.41
2022-08-10T10:14:08.154Z,98.36
2022-08-10T10:17:10.863Z,97.42
2022-08-10T10:20:05.168Z,94.68
2022-08-10T10:23:01.726Z,96.12
2022-08-10T10:25:50.976Z,96.76
2022-08-10T10:29:37.621Z,93.00
2022-08-10T10:32:08.791Z,91.94
2022-08-10T10:34:53.821Z,92.06
2022-08-10T10:37:20.787Z,90.18
2022-08-10T10:40:07.952Z,93.34
2022-08-10T10:43:19.538Z,91.11
2022-08-10T10:45:57.853Z,91.75
2022-08-10T10:49:08.264Z,91.95
2022-08-10T10:51:41.762Z,91.52
2022-08-10T10:54:10.400Z,88.84
2022-08-10T10:56:57.464Z,88.33
2022-08-10T10:59:55.896Z,88.39
2022-08-10T11:02:42.296Z,86.67
2022-08-10T11:05:17.701Z,85.34
2022-08-10T11:07:56.828Z,84.38
2022-08-10T11:10:47.304Z,87.31
2022-08-10T11:14:25.831Z,86.33
2022-08-10T11:16:43.409Z,84.75
2022-08-10T11:19:19.698Z,82.63
2022-08-10T11:22:07.973Z,81.86
2022-08-10T11:25:06.816Z,78.00
2022-08-10T11:27:50.974Z,76.45
2022-08-10T11:30:32.234Z,75.20
2022-08-10T11:33:30.824Z,75.70
2022-08-10T11:36:11.586Z,74.38
2022-08-10T11:39:11.115Z,73.94
2022-08-10T11:42:09.791Z,74.73
2022-08-10T11:44:43.314Z,75.39
2022-08-10T11:47:20.627Z,76.53
2022-08-10T11:50:01.852Z,76.96
2022-08-10T11:52:39.784Z,74.49
2022-08-10T11:55:13.619Z,73.62
2022-08-10T11:57:53.940Z,74.01
2022-08-10T12:00:21.947Z,73.57
2022-08-10T12:02:50.386Z,72.37
2022-08-10T12:05:53.896Z,71.52
2022-08-10T12:10:06.815Z,73.54
2022-08-10T12:11:10.046Z,72.20
2022-08-10T12:13:40.178Z,70.68
2022-08-10T12:16:06.804Z,70.33
2022-08-10T12:18:48.176Z,71.08
2022-08-10T12:21:23.634Z,69.34
2022-08-10T12:24:08.808Z,69.83
2022-08-10T12:26:41.770Z,68.66
2022-08-10T12:29:15.158Z,67.88
2022-08-10T12:32:07.773Z,67.22
2022-08-10T12:35:12.654Z,66.40
2022-08-10T12:38:22.162Z,66.31
2022-08-10T12:40:51.589Z,66.53
2022-08-10T12:44:07.737Z,66.67
2022-08-10T12:47:01.340Z,66.40
2022-08-10T12:49:40.748Z,64.31
2022-08-10T12:52:32.943Z,65.64
2022-08-10T12:54:59.784Z,66.68
2022-08-10T12:57:26.308Z,65.34
2022-08-10T12:59:57.525Z,66.08
2022-08-10T13:02:31.369Z,64.48
2022-08-10T13:04:59.023Z,64.12
2022-08-10T13:08:03.635Z,61.94
2022-08-10T13:10:19.739Z,60.04
2022-08-10T13:12:49.228Z,59.02
2022-08-10T13:15:45.648Z,60.00
2022-08-10T13:18:04.991Z,60.77
2022-08-10T13:20:35.003Z,62.54
2022-08-10T13:23:02.499Z,62.36
2022-08-10T13:25:31.558Z,62.08
2022-08-10T13:28:34.727Z,61.07
2022-08-10T13:30:50.804Z,60.87
2022-08-10T13:33:17.788Z,60.45
2022-08-10T13:36:04.378Z,60.70
2022-08-10T13:38:31.964Z,59.70
2022-08-10T13:40:58.395Z,61.85
2022-08-10T13:43:24.880Z,58.81
2022-08-10T13:45:51.330Z,60.23
2022-08-10T13:48:20.116Z,58.06
2022-08-10T13:50:46.660Z,58.01
2022-08-10T13:53:15.481Z,58.88
2022-08-10T13:55:54.589Z,57.22
2022-08-10T13:58:28.134Z,57.92
2022-08-10T14:00:56.018Z,57.87
2022-08-10T14:03:22.530Z,58.26
2022-08-10T14:05:53.941Z,57.47
2022-08-10T14:08:25.802Z,58.96
2022-08-10T14:11:09.139Z,57.37
2022-08-10T14:13:37.837Z,58.10
2022-08-10T14:16:06.003Z,55.27
2022-08-10T14:18:34.869Z,54.09
2022-08-10T14:21:01.312Z,54.92
2022-08-10T14:23:32.293Z,56.13
2022-08-10T14:26:08.519Z,55.38
2022-08-10T14:28:41.887Z,54.03
2022-08-10T14:31:21.137Z,56.27
2022-08-10T14:33:53.345Z,54.09
2022-08-10T14:36:26.108Z,52.35
2022-08-10T14:38:53.094Z,51.72
2022-08-10T14:42:03.792Z,52.62
2022-08-10T14:44:10.730Z,55.15
2022-08-10T14:46:42.048Z,56.18
2022-08-10T14:49:26.254Z,53.27
2022-08-10T14:51:53.275Z,53.11
2022-08-10T14:54:28.234Z,53.93
2022-08-10T14:56:55.280Z,53.38
2022-08-10T14:59:21.844Z,53.79
2022-08-10T15:02:01.445Z,52.14
2022-08-10T15:04:35.399Z,55.73
2022-08-10T15:07:12.920Z,54.32
2022-08-10T15:10:00.406Z,52.10
2022-08-10T15:12:36.674Z,50.61
2022-08-10T15:15:16.458Z,50.72
2022-08-10T15:17:50.734Z,52.01
2022-08-10T15:20:21.561Z,49.92
2022-08-10T15:22:50.124Z,50.44
2022-08-10T15:25:24.453Z,51.80
2022-08-10T15:27:57.213Z,54.55
2022-08-10T15:30:30.010Z,53.63
2022-08-10T15:33:16.190Z,54.29
2022-08-10T15:36:06.543Z,56.36
2022-08-10T15:38:35.393Z,55.59
2022-08-10T15:41:01.961Z,54.88
2022-08-10T15:43:36.807Z,54.29
2022-08-10T15:46:16.010Z,54.25
2022-08-10T15:49:03.094Z,53.37
2022-08-10T15:51:53.934Z,50.44
2022-08-10T15:54:33.162Z,51.70
2022-08-10T15:57:02.998Z,50.90
2022-08-10T15:59:32.800Z,51.58
2022-08-10T16:02:16.145Z,51.54
2022-08-10T16:05:06.705Z,48.67
2022-08-10T16:07:38.948Z,49.02
2022-08-10T16:10:26.084Z,48.41
2022-08-10T16:12:59.910Z,49.34
2022-08-10T16:15:27.810Z,50.51
2022-08-10T16:18:01.573Z,49.32
2022-08-10T16:20:31.536Z,49.16
2022-08-10T16:23:00.649Z,46.84
2022-08-10T16:25:47.778Z,48.59
2022-08-10T16:28:23.126Z,47.96
2022-08-10T16:30:53.033Z,48.09
2022-08-10T16:33:23.158Z,43.71
2022-08-10T16:35:51.537Z,46.46
2022-08-10T16:38:17.990Z,44.25
2022-08-10T16:40:44.547Z,46.84
2022-08-10T16:43:11.271Z,47.37
2022-08-10T16:45:43.435Z,48.08
2022-08-10T16:48:10.068Z,49.45
2022-08-10T16:50:45.276Z,48.99
2022-08-10T16:53:13.809Z,51.61
2022-08-10T16:55:49.489Z,54.09
2022-08-10T16:58:20.339Z,55.22
2022-08-10T17:00:46.887Z,55.85
2022-08-10T17:03:22.455Z,54.54
2022-08-10T17:06:01.696Z,56.41
2022-08-10T17:08:50.336Z,55.66
2022-08-10T17:11:17.574Z,57.66
2022-08-10T17:13:44.098Z,58.04
2022-08-10T17:16:10.570Z,56.55
2022-08-10T17:18:38.463Z,58.71
2022-08-10T17:21:20.089Z,57.42
2022-08-10T17:23:51.453Z,54.53
2022-08-10T17:26:35.439Z,53.11
2022-08-10T17:29:08.593Z,52.77
2022-08-10T17:31:54.945Z,54.74
2022-08-10T17:34:24.794Z,55.85
2022-08-10T17:36:58.017Z,56.62
2022-08-10T17:39:29.312Z,58.10
2022-08-10T17:41:58.667Z,59.40
2022-08-10T17:44:25.135Z,59.59
2022-08-10T17:46:51.615Z,60.78
2022-08-10T17:49:18.226Z,61.52
2022-08-10T17:51:50.586Z,62.70
2022-08-10T17:54:29.641Z,61.09
2022-08-10T17:56:58.455Z,63.20
2022-08-10T17:59:24.971Z,61.95
2022-08-10T18:02:01.659Z,62.55
2022-08-10T18:04:34.148Z,64.38
2022-08-10T18:07:07.128Z,67.42
2022-08-10T18:09:35.941Z,65.49
2022-08-10T18:12:17.576Z,65.74
2022-08-10T18:14:46.629Z,68.73
2022-08-10T18:17:14.554Z,67.48
2022-08-10T18:19:43.626Z,65.97
2022-08-10T18:22:11.791Z,67.08
2022-08-10T18:24:38.354Z,68.03
2022-08-10T18:27:05.091Z,68.90
2022-08-10T18:29:31.541Z,69.63
2022-08-10T18:32:02.017Z,70.71
2022-08-10T18:34:32.241Z,72.57
2022-08-10T18:36:58.738Z,72.49
2022-08-10T18:39:27.886Z,72.11
2022-08-10T18:42:00.452Z,72.91
2022-08-10T18:44:35.069Z,74.20
2022-08-10T18:47:03.839Z,75.97
2022-08-10T18:49:32.875Z,76.60
2022-08-10T18:52:02.474Z,77.16
2022-08-10T18:54:50.060Z,77.46
2022-08-10T18:57:28.951Z,78.25
2022-08-10T19:00:14.695Z,79.82
2022-08-10T19:02:47.958Z,80.78
2022-08-10T19:05:30.879Z,81.97
2022-08-10T19:08:30.380Z,82.00
2022-08-10T19:11:23.916Z,82.55
2022-08-10T19:14:08.551Z,82.94
2022-08-10T19:16:50.483Z,82.48
2022-08-10T19:19:33.268Z,84.73
2022-08-10T19:22:06.615Z,83.80
2022-08-10T19:24:33.053Z,85.89
2022-08-10T19:27:11.720Z,85.65
2022-08-10T19:30:09.255Z,86.20
2022-08-10T19:32:37.846Z,85.88
2022-08-10T19:35:08.894Z,85.83
2022-08-10T19:38:01.103Z,85.90
2022-08-10T19:40:44.185Z,86.54
2022-08-10T19:44:00.709Z,86.29
2022-08-10T19:46:41.204Z,87.15
2022-08-10T19:49:39.692Z,87.61
2022-08-10T19:52:19.604Z,88.03
2022-08-10T19:55:15.479Z,88.81
2022-08-10T19:57:44.557Z,89.20
2022-08-10T20:00:19.269Z,89.17
2022-08-10T20:03:10.599Z,89.12
2022-08-10T20:06:13.249Z,89.75
2022-08-10T20:09:06.436Z,89.54
2022-08-10T20:11:45.586Z,90.01
2022-08-10T20:14:31.274Z,90.00
2022-08-10T20:17:04.040Z,90.39
2022-08-10T20:19:52.858Z,90.30
2022-08-10T20:22:29.580Z,90.79
2022-08-10T20:25:02.962Z,90.75
2022-08-10T20:27:44.378Z,91.09
2022-08-10T20:30:20.671Z,91.70
2022-08-10T20:32:50.823Z,92.32
2022-08-10T20:35:23.351Z,92.46
2022-08-10T20:38:03.594Z,92.48
2022-08-10T20:40:46.761Z,94.89
2022-08-10T20:43:19.731Z,95.47
2022-08-10T20:46:10.991Z,96.08
2022-08-10T20:48:54.594Z,97.22
2022-08-10T20:51:22.866Z,97.40
2022-08-10T20:53:55.703Z,98.88
2022-08-10T20:56:28.262Z,99.33
2022-08-10T20:59:16.476Z,100.00
2022-08-10T21:02:27.004Z,100.00
2022-08-10T21:05:05.147Z,100.00
2022-08-10T21:10:42.694Z,100.00
2022-08-10T21:13:12.056Z,100.00
2022-08-10T21:16:07.696Z,100.00
2022-08-10T21:18:45.823Z,100.00
2022-08-10T21:21:18.222Z,100.00
2022-08-10T21:24:06.295Z,100.00
2022-08-10T21:26:45.075Z,100.00
2022-08-10T21:29:37.937Z,100.00
2022-08-10T21:32:12.158Z,100.00
2022-08-10T21:35:15.537Z,100.00
2022-08-10T21:41:17.483Z,100.00
2022-08-10T21:44:18.024Z,100.00
2022-08-10T21:47:10.131Z,100.00
2022-08-10T21:50:07.633Z,100.00
2022-08-10T21:53:00.739Z,100.00
2022-08-10T21:56:09.589Z,100.00
2022-08-10T21:59:23.188Z,100.00
2022-08-10T22:02:11.856Z,100.00
2022-08-10T22:04:57.563Z,100.00
2022-08-10T22:07:42.232Z,100.00
2022-08-10T22:10:28.612Z,100.00
2022-08-10T22:13:13.560Z,100.00
2022-08-10T22:16:11.051Z,100.00
2022-08-10T22:19:01.388Z,100.00
2022-08-10T22:21:48.105Z,100.00
2022-08-10T22:24:41.836Z,100.00
2022-08-10T22:27:47.458Z,100.00
2022-08-10T22:30:34.921Z,100.00
2022-08-10T22:31:27.381Z,100.00
2022-08-10T22:33:59.238Z,100.00
2022-08-10T22:36:56.468Z,100.00
2022-08-10T22:40:11.926Z,100.00
2022-08-10T22:43:10.714Z,100.00
2022-08-10T22:45:57.350Z,100.00
2022-08-10T22:48:42.499Z,100.00
2022-08-10T22:51:15.853Z,100.00
2022-08-10T22:54:03.724Z,100.00
2022-08-10T22:56:48.864Z,100.00
2022-08-10T22:59:26.413Z,100.00
2022-08-10T23:02:08.386Z,100.00
2022-08-10T23:04:38.371Z,100.00
2022-08-10T23:07:17.222Z,100.00
2022-08-10T23:09:44.780Z,100.00
2022-08-10T23:12:16.919Z,100.00
2022-08-10T23:14:59.260Z,100.00
2022-08-10T23:18:00.592Z,100.00
2022-08-10T23:20:29.008Z,100.00
2022-08-10T23:22:59.390Z,100.00
2022-08-10T23:25:28.313Z,100.00
2022-08-10T23:28:03.133Z,100.00
2022-08-10T23:30:38.968Z,100.00
2022-08-10T23:33:11.647Z,100.00
2022-08-10T23:36:29.874Z,100.00
2022-08-10T23:38:36.271Z,100.00
2022-08-10T23:41:03.357Z,100.00
2022-08-10T23:44:00.844Z,100.00
2022-08-10T23:46:23.418Z,100.00
2022-08-10T23:48:49.886Z,100.00
2022-08-10T23:51:17.229Z,100.00
2022-08-10T23:53:44.908Z,100.00
2022-08-10T23:56:16.548Z,100.00
2022-08-10T23:58:55.846Z,100.00
